createdAt,value
2023-05-05T00:01:34.206Z,94022.50
2023-05-05T00:04:01.329Z,94018.63
2023-05-05T00:06:31.609Z,94020.75
2023-05-05T00:08:58.564Z,94019.56
2023-05-05T00:11:26.108Z,94019.06
2023-05-05T00:13:52.976Z,94014.53
2023-05-05T00:16:20.128Z,94014.53
2023-05-05T00:18:48.410Z,94013.72
2023-05-05T00:21:15.797Z,94015.84
2023-05-05T00:23:42.704Z,94012.59
2023-05-05T00:26:09.562Z,94016.41
2023-05-05T00:28:37.920Z,94013.56
2023-05-05T00:31:05.045Z,94016.72
2023-05-05T00:33:32.058Z,94019.75
2023-05-05T00:36:00.376Z,94014.44
2023-05-05T00:38:27.381Z,94018.25
2023-05-05T00:40:54.435Z,94007.19
2023-05-05T00:43:21.683Z,94015.19
2023-05-05T00:45:52.928Z,94014.97
2023-05-05T00:48:19.927Z,94017.31
2023-05-05T00:50:46.794Z,94017.59
2023-05-05T00:53:15.069Z,94018.56
2023-05-05T00:55:41.986Z,94016.41
2023-05-05T00:58:10.055Z,94016.59
2023-05-05T01:00:37.026Z,94022.53
2023-05-05T01:03:05.289Z,94020.09
2023-05-05T01:05:36.402Z,94019.41
2023-05-05T01:08:13.981Z,94015.41
2023-05-05T01:10:47.065Z,94015.16
2023-05-05T01:13:22.714Z,94020.94
2023-05-05T01:15:53.558Z,94019.03
2023-05-05T01:18:32.724Z,94014.31
2023-05-05T01:21:03.208Z,94009.75
2023-05-05T01:23:51.034Z,94004.63
2023-05-05T01:26:38.237Z,94011.00
2023-05-05T01:29:26.248Z,94004.31
2023-05-05T01:31:57.132Z,94005.84
2023-05-05T01:34:26.788Z,94003.47
2023-05-05T01:36:57.664Z,93999.97
2023-05-05T01:39:28.014Z,94001.72
2023-05-05T01:41:59.014Z,94005.50
2023-05-05T01:44:27.422Z,94000.53
2023-05-05T01:46:56.101Z,93995.03
2023-05-05T01:49:23.140Z,93991.91
2023-05-05T01:51:50.111Z,93988.53
2023-05-05T01:54:18.719Z,93988.53
2023-05-05T01:56:45.420Z,93989.22
2023-05-05T01:59:13.238Z,93990.56
2023-05-05T02:01:45.949Z,93989.34
2023-05-05T02:04:15.266Z,93984.38
2023-05-05T02:06:43.909Z,93980.19
2023-05-05T02:09:11.838Z,93978.69
2023-05-05T02:11:38.614Z,93984.34
2023-05-05T02:14:05.870Z,93984.19
2023-05-05T02:16:33.519Z,93985.28
2023-05-05T02:19:05.106Z,93987.13
2023-05-05T02:21:33.964Z,93986.88
2023-05-05T02:24:01.375Z,93987.81
2023-05-05T02:26:29.988Z,93985.22
2023-05-05T02:29:03.352Z,93989.09
2023-05-05T02:31:31.560Z,93983.53
2023-05-05T02:33:59.697Z,93983.66
2023-05-05T02:36:28.952Z,93987.94
2023-05-05T02:39:04.770Z,93985.00
2023-05-05T02:41:38.824Z,93987.94
2023-05-05T02:44:12.924Z,93985.75
2023-05-05T02:46:40.503Z,93986.28
2023-05-05T02:49:07.393Z,93984.69
2023-05-05T02:51:35.183Z,93983.94
2023-05-05T02:54:08.486Z,93985.75
2023-05-05T02:56:41.036Z,93985.31
2023-05-05T02:59:13.325Z,93983.13
2023-05-05T03:01:51.412Z,93985.78
2023-05-05T03:04:25.083Z,93984.22
2023-05-05T03:06:57.438Z,93982.66
2023-05-05T03:09:30.954Z,93982.78
2023-05-05T03:12:01.271Z,93977.50
2023-05-05T03:14:33.356Z,93974.66
2023-05-05T03:17:01.578Z,93981.66
2023-05-05T03:19:29.804Z,93984.22
2023-05-05T03:22:00.868Z,93981.41
2023-05-05T03:24:29.348Z,93983.97
2023-05-05T03:27:04.438Z,93986.09
2023-05-05T03:29:35.707Z,93985.78
2023-05-05T03:32:04.695Z,93987.53
2023-05-05T03:34:32.553Z,93983.72
2023-05-05T03:37:01.897Z,93982.13
2023-05-05T03:39:30.247Z,93983.31
2023-05-05T03:41:58.026Z,93988.94
2023-05-05T03:44:28.967Z,93985.41
2023-05-05T03:46:56.962Z,93979.03
2023-05-05T03:49:24.554Z,93982.91
2023-05-05T03:51:52.359Z,93978.94
2023-05-05T03:54:19.361Z,93982.69
2023-05-05T03:56:47.649Z,93991.19
2023-05-05T03:59:14.535Z,93987.81
2023-05-05T04:01:41.671Z,93993.53
2023-05-05T04:04:09.659Z,93993.22
2023-05-05T04:06:36.741Z,93992.59
2023-05-05T04:09:03.742Z,93989.22
2023-05-05T04:11:31.409Z,93995.66
2023-05-05T04:13:59.832Z,93992.31
2023-05-05T04:16:28.915Z,93998.44
2023-05-05T04:18:56.615Z,93998.00
2023-05-05T04:21:23.664Z,93997.22
2023-05-05T04:23:50.622Z,93993.25
2023-05-05T04:26:17.887Z,93991.75
2023-05-05T04:28:45.392Z,94003.00
2023-05-05T04:31:13.742Z,94000.28
2023-05-05T04:33:42.616Z,93997.91
2023-05-05T04:36:10.225Z,94008.53
2023-05-05T04:38:37.217Z,94010.31
2023-05-05T04:41:06.433Z,94008.19
2023-05-05T04:43:34.544Z,94015.25
2023-05-05T04:46:01.807Z,94021.03
2023-05-05T04:48:34.274Z,94015.59
2023-05-05T04:51:04.733Z,94024.63
2023-05-05T04:53:32.042Z,94025.75
2023-05-05T04:56:00.092Z,94028.81
2023-05-05T04:58:27.560Z,94032.19
2023-05-05T05:00:55.350Z,94035.50
2023-05-05T05:03:22.482Z,94025.75
2023-05-05T05:05:50.994Z,94030.06
2023-05-05T05:08:18.056Z,94033.28
2023-05-05T05:10:45.174Z,94040.03
2023-05-05T05:13:13.002Z,94037.78
2023-05-05T05:15:40.792Z,94045.78
2023-05-05T05:18:07.936Z,94046.56
2023-05-05T05:20:34.985Z,94041.88
2023-05-05T05:23:04.399Z,94040.91
2023-05-05T05:25:33.633Z,94042.50
2023-05-05T05:28:09.593Z,94050.28
2023-05-05T05:30:41.868Z,94042.63
2023-05-05T05:33:10.802Z,94046.63
2023-05-05T05:35:38.718Z,94048.91
2023-05-05T05:38:07.566Z,94039.94
2023-05-05T05:40:34.546Z,94048.16
2023-05-05T05:43:02.949Z,94049.63
2023-05-05T05:45:30.323Z,94041.44
2023-05-05T05:47:57.298Z,94037.28
2023-05-05T05:50:27.156Z,94036.47
2023-05-05T05:52:54.298Z,94039.41
2023-05-05T05:55:22.786Z,94031.56
2023-05-05T05:57:49.697Z,94051.06
2023-05-05T06:00:16.933Z,94046.31
2023-05-05T06:02:51.689Z,94049.13
2023-05-05T06:05:22.034Z,94045.75
2023-05-05T06:07:51.061Z,94046.75
2023-05-05T06:12:54.800Z,94048.53
2023-05-05T06:15:21.761Z,94049.50
2023-05-05T06:17:48.984Z,94055.34
2023-05-05T06:20:15.964Z,94053.88
2023-05-05T06:22:42.948Z,94054.88
2023-05-05T06:25:11.069Z,94053.63
2023-05-05T06:27:38.429Z,94055.56
2023-05-05T06:30:09.754Z,94054.25
2023-05-05T06:32:36.815Z,94064.25
2023-05-05T06:35:04.056Z,94064.59
2023-05-05T06:37:30.951Z,94054.25
2023-05-05T06:39:57.866Z,94069.88
2023-05-05T06:42:24.840Z,94059.25
2023-05-05T06:44:53.441Z,94064.41
2023-05-05T06:47:22.262Z,94058.44
2023-05-05T06:49:49.251Z,94063.25
2023-05-05T06:52:16.360Z,94057.28
2023-05-05T06:54:43.757Z,94053.03
2023-05-05T06:57:10.857Z,94055.81
2023-05-05T06:59:37.767Z,94055.75
2023-05-05T07:02:04.617Z,94046.22
2023-05-05T07:04:32.924Z,94051.84
2023-05-05T07:06:59.790Z,94052.91
2023-05-05T07:09:26.761Z,94050.59
2023-05-05T07:11:53.662Z,94051.06
2023-05-05T07:14:22.761Z,94050.75
2023-05-05T07:16:51.543Z,94042.03
2023-05-05T07:19:18.777Z,94045.06
2023-05-05T07:21:47.724Z,94046.63
2023-05-05T07:24:14.581Z,94045.63
2023-05-05T07:26:41.633Z,94043.03
2023-05-05T07:29:08.700Z,94043.16
2023-05-05T07:31:35.698Z,94039.69
2023-05-05T07:34:02.629Z,94042.47
2023-05-05T07:36:29.591Z,94049.31
2023-05-05T07:38:57.899Z,94045.97
2023-05-05T07:41:24.958Z,94046.25
2023-05-05T07:43:51.846Z,94039.25
2023-05-05T07:46:18.785Z,94035.56
2023-05-05T07:48:45.655Z,94035.94
2023-05-05T07:51:12.671Z,94040.59
2023-05-05T07:53:41.041Z,94036.47
2023-05-05T07:56:09.369Z,94040.09
2023-05-05T07:58:36.091Z,94046.50
2023-05-05T08:01:03.006Z,94040.44
2023-05-05T08:03:30.011Z,94041.97
2023-05-05T08:05:57.087Z,94039.28
2023-05-05T08:08:25.031Z,94040.13
2023-05-05T08:10:53.310Z,94043.41
2023-05-05T08:13:21.728Z,94038.03
2023-05-05T08:15:48.683Z,94039.66
2023-05-05T08:18:15.673Z,94036.59
2023-05-05T08:20:42.638Z,94029.16
2023-05-05T08:23:09.535Z,94028.72
2023-05-05T08:25:36.548Z,94029.38
2023-05-05T08:28:03.665Z,94021.28
2023-05-05T08:30:31.918Z,94018.94
2023-05-05T08:32:59.338Z,94016.59
2023-05-05T08:35:26.308Z,94015.03
2023-05-05T08:37:53.210Z,94015.25
2023-05-05T08:40:21.419Z,94021.72
2023-05-05T08:42:48.467Z,94020.59
2023-05-05T08:45:15.989Z,94005.63
2023-05-05T08:47:44.687Z,94006.06
2023-05-05T08:50:12.424Z,94010.06
2023-05-05T08:52:40.873Z,94012.09
2023-05-05T08:55:14.400Z,94012.88
2023-05-05T08:57:45.577Z,94015.84
2023-05-05T09:00:13.592Z,94011.97
2023-05-05T09:02:44.204Z,94018.94
2023-05-05T09:05:11.344Z,94004.44
2023-05-05T09:07:41.193Z,94002.63
2023-05-05T09:10:09.731Z,94002.44
2023-05-05T09:12:40.366Z,94004.47
2023-05-05T09:15:09.850Z,94002.19
2023-05-05T09:17:37.017Z,93992.13
2023-05-05T09:20:07.470Z,93994.91
2023-05-05T09:22:36.863Z,93990.06
2023-05-05T09:25:04.569Z,93989.06
2023-05-05T09:27:31.716Z,93994.22
2023-05-05T09:29:58.660Z,93992.16
2023-05-05T09:32:27.583Z,93992.19
2023-05-05T09:34:59.227Z,93998.47
2023-05-05T09:37:31.585Z,93999.25
2023-05-05T09:40:01.180Z,94001.38
2023-05-05T09:42:28.335Z,94004.91
2023-05-05T09:44:56.061Z,94000.16
2023-05-05T09:47:34.925Z,94001.34
2023-05-05T09:50:02.775Z,93993.59
2023-05-05T09:52:32.030Z,93993.84
2023-05-05T09:54:58.981Z,93987.19
2023-05-05T09:57:27.215Z,93989.63
2023-05-05T09:59:58.109Z,93979.75
2023-05-05T10:02:32.866Z,93981.13
2023-05-05T10:05:11.030Z,93981.88
2023-05-05T10:07:40.174Z,93984.00
2023-05-05T10:10:09.030Z,93977.06
2023-05-05T10:12:37.169Z,93981.31
2023-05-05T10:15:04.400Z,93986.34
2023-05-05T10:17:33.037Z,93979.56
2023-05-05T10:20:01.382Z,93982.81
2023-05-05T10:22:30.542Z,93975.97
2023-05-05T10:25:03.665Z,93973.88
2023-05-05T10:27:34.955Z,93978.66
2023-05-05T10:30:04.538Z,93969.94
2023-05-05T10:32:55.961Z,93958.09
2023-05-05T10:35:23.472Z,93965.22
2023-05-05T10:37:51.048Z,93960.78
2023-05-05T10:40:22.209Z,93973.47
2023-05-05T10:42:50.944Z,93967.25
2023-05-05T10:45:18.001Z,93964.63
2023-05-05T10:47:45.160Z,93966.88
2023-05-05T10:50:16.453Z,93963.94
2023-05-05T10:52:48.161Z,93970.19
2023-05-05T10:55:21.147Z,93962.84
2023-05-05T10:57:52.559Z,93963.69
2023-05-05T11:00:49.809Z,93956.06
2023-05-05T11:03:21.491Z,93968.34
2023-05-05T11:06:09.425Z,93962.97
2023-05-05T11:08:36.895Z,93964.38
2023-05-05T11:11:06.097Z,93961.78
2023-05-05T11:13:33.157Z,93964.22
2023-05-05T11:16:02.041Z,93959.22
2023-05-05T11:18:36.602Z,93957.78
2023-05-05T11:21:17.217Z,93959.22
2023-05-05T11:23:48.799Z,93962.81
2023-05-05T11:26:18.850Z,93959.41
2023-05-05T11:29:00.534Z,93953.47
2023-05-05T11:31:28.516Z,93940.78
2023-05-05T11:33:55.497Z,93945.41
2023-05-05T11:36:40.106Z,93943.66
2023-05-05T11:39:19.316Z,93940.88
2023-05-05T11:41:59.844Z,93943.03
2023-05-05T11:44:30.879Z,93941.22
2023-05-05T11:47:26.980Z,93941.41
2023-05-05T11:49:55.491Z,93943.84
2023-05-05T11:52:24.833Z,93936.91
2023-05-05T11:54:51.780Z,93939.94
2023-05-05T11:57:21.868Z,93937.75
2023-05-05T11:59:54.956Z,93932.75
2023-05-05T12:02:22.729Z,93938.69
2023-05-05T12:04:50.948Z,93932.28
2023-05-05T12:07:18.843Z,93928.88
2023-05-05T12:09:47.025Z,93925.50
2023-05-05T12:12:14.602Z,93920.03
2023-05-05T12:14:53.262Z,93908.03
2023-05-05T12:17:21.313Z,93903.91
2023-05-05T12:19:48.470Z,93918.84
2023-05-05T12:22:19.553Z,93912.75
2023-05-05T12:24:54.995Z,93916.03
2023-05-05T12:27:22.557Z,93908.63
2023-05-05T12:29:51.479Z,93910.28
2023-05-05T12:32:20.109Z,93902.28
2023-05-05T12:34:47.163Z,93912.38
2023-05-05T12:37:15.804Z,93901.41
2023-05-05T12:39:42.775Z,93898.84
2023-05-05T12:42:09.681Z,93898.09
2023-05-05T12:44:37.238Z,93899.34
2023-05-05T12:47:05.868Z,93895.94
2023-05-05T12:49:34.231Z,93884.53
2023-05-05T12:52:01.312Z,93892.06
2023-05-05T12:54:29.811Z,93880.47
2023-05-05T12:56:59.694Z,93886.91
2023-05-05T12:59:31.094Z,93890.72
2023-05-05T13:02:00.083Z,93885.72
2023-05-05T13:04:28.862Z,93888.56
2023-05-05T13:07:09.089Z,93883.97
2023-05-05T13:09:36.067Z,93875.34
2023-05-05T13:12:03.919Z,93877.72
2023-05-05T13:14:31.872Z,93879.56
2023-05-05T13:16:58.824Z,93877.41
2023-05-05T13:19:25.986Z,93876.66
2023-05-05T13:21:55.608Z,93874.00
2023-05-05T13:24:34.464Z,93877.97
2023-05-05T13:27:09.701Z,93875.78
2023-05-05T13:29:36.768Z,93867.53
2023-05-05T13:32:03.857Z,93873.34
2023-05-05T13:34:30.866Z,93863.78
2023-05-05T13:36:59.330Z,93870.97
2023-05-05T13:39:26.643Z,93865.13
2023-05-05T13:41:53.949Z,93866.78
2023-05-05T13:44:20.859Z,93861.41
2023-05-05T13:46:47.890Z,93866.19
2023-05-05T13:49:14.881Z,93857.38
2023-05-05T13:51:41.872Z,93866.19
2023-05-05T13:54:10.524Z,93868.06
2023-05-05T13:56:37.500Z,93876.47
2023-05-05T13:59:04.527Z,93876.06
2023-05-05T14:01:31.454Z,93873.84
2023-05-05T14:03:58.570Z,93871.44
2023-05-05T14:06:26.478Z,93866.47
2023-05-05T14:08:53.643Z,93865.91
2023-05-05T14:11:21.902Z,93870.69
2023-05-05T14:13:48.972Z,93864.84
2023-05-05T14:16:16.118Z,93871.28
2023-05-05T14:18:43.200Z,93866.69
2023-05-05T14:21:10.637Z,93862.50
2023-05-05T14:23:37.540Z,93861.25
2023-05-05T14:26:04.485Z,93869.50
2023-05-05T14:28:32.795Z,93858.47
2023-05-05T14:30:59.675Z,93864.91
2023-05-05T14:33:26.901Z,93859.09
2023-05-05T14:35:53.911Z,93854.09
2023-05-05T14:38:20.838Z,93858.09
2023-05-05T14:40:47.838Z,93860.50
2023-05-05T14:43:14.727Z,93860.34
2023-05-05T14:45:44.333Z,93856.75
2023-05-05T14:48:11.375Z,93849.53
2023-05-05T14:50:39.987Z,93848.72
2023-05-05T14:53:06.929Z,93851.53
2023-05-05T14:55:33.942Z,93850.97
2023-05-05T14:58:01.055Z,93848.16
2023-05-05T15:00:28.514Z,93847.72
2023-05-05T15:02:56.891Z,93850.13
2023-05-05T15:05:23.926Z,93846.94
2023-05-05T15:07:50.939Z,93856.97
2023-05-05T15:10:19.657Z,93855.34
2023-05-05T15:12:48.630Z,93860.53
2023-05-05T15:15:15.575Z,93862.56
2023-05-05T15:17:43.221Z,93861.16
2023-05-05T15:20:12.329Z,93858.94
2023-05-05T15:22:39.289Z,93860.56
2023-05-05T15:25:10.986Z,93855.56
2023-05-05T15:27:38.425Z,93861.34
2023-05-05T15:30:06.683Z,93856.53
2023-05-05T15:32:33.624Z,93859.72
2023-05-05T15:35:00.612Z,93859.34
2023-05-05T15:37:29.062Z,93849.53
2023-05-05T15:39:56.322Z,93853.13
2023-05-05T15:42:23.355Z,93845.34
2023-05-05T15:44:50.555Z,93848.13
2023-05-05T15:47:17.731Z,93850.53
2023-05-05T15:49:44.657Z,93855.09
2023-05-05T15:52:12.811Z,93850.75
2023-05-05T15:54:41.465Z,93849.94
2023-05-05T15:57:08.452Z,93846.72
2023-05-05T15:59:35.499Z,93842.22
2023-05-05T16:02:02.695Z,93841.31
2023-05-05T16:04:29.846Z,93838.50
2023-05-05T16:06:58.078Z,93843.09
2023-05-05T16:09:25.094Z,93847.75
2023-05-05T16:11:54.635Z,93846.78
2023-05-05T16:14:21.540Z,93838.78
2023-05-05T16:16:48.631Z,93839.94
2023-05-05T16:19:15.971Z,93828.66
2023-05-05T16:21:42.904Z,93837.00
2023-05-05T16:24:10.010Z,93835.69
2023-05-05T16:26:36.982Z,93833.94
2023-05-05T16:29:05.301Z,93829.31
2023-05-05T16:31:34.022Z,93833.72
2023-05-05T16:34:01.032Z,93834.78
2023-05-05T16:36:28.295Z,93832.28
2023-05-05T16:38:55.327Z,93825.13
2023-05-05T16:41:22.741Z,93825.19
2023-05-05T16:43:49.940Z,93830.38
2023-05-05T16:46:18.478Z,93831.78
2023-05-05T16:48:46.166Z,93829.78
2023-05-05T16:51:13.136Z,93826.41
2023-05-05T16:53:40.117Z,93825.13
2023-05-05T16:56:07.287Z,93833.81
2023-05-05T16:58:34.176Z,93832.22
2023-05-05T17:01:02.800Z,93828.41
2023-05-05T17:03:31.214Z,93834.47
2023-05-05T17:05:58.248Z,93826.72
2023-05-05T17:08:25.298Z,93827.06
2023-05-05T17:10:52.140Z,93828.22
2023-05-05T17:13:19.414Z,93831.34
2023-05-05T17:15:46.895Z,93837.34
2023-05-05T17:18:13.795Z,93838.06
2023-05-05T17:20:42.809Z,93837.28
2023-05-05T17:23:09.671Z,93837.41
2023-05-05T17:25:36.612Z,93841.03
2023-05-05T17:28:03.886Z,93854.16
2023-05-05T17:30:31.108Z,93860.63
2023-05-05T17:32:58.096Z,93865.63
2023-05-05T17:35:25.036Z,93871.88
2023-05-05T17:37:53.345Z,93864.28
2023-05-05T17:40:20.028Z,93871.75
2023-05-05T17:42:47.272Z,93871.72
2023-05-05T17:45:14.222Z,93866.72
2023-05-05T17:47:41.153Z,93863.91
2023-05-05T17:50:10.907Z,93866.56
2023-05-05T17:52:38.045Z,93866.38
2023-05-05T17:55:07.743Z,93871.75
2023-05-05T17:57:35.459Z,93868.28
2023-05-05T18:00:04.626Z,93869.00
2023-05-05T18:02:39.396Z,93878.59
2023-05-05T18:05:07.155Z,93876.78
2023-05-05T18:07:34.587Z,93876.31
2023-05-05T18:10:01.552Z,93877.91
2023-05-05T18:12:29.982Z,93879.16
2023-05-05T18:14:56.925Z,93882.91
2023-05-05T18:17:23.820Z,93885.19
2023-05-05T18:19:50.705Z,93886.81
2023-05-05T18:22:17.735Z,93889.53
2023-05-05T18:24:45.608Z,93890.34
2023-05-05T18:27:12.945Z,93889.53
2023-05-05T18:29:41.637Z,93892.44
2023-05-05T18:32:08.544Z,93900.50
2023-05-05T18:34:35.493Z,93891.16
2023-05-05T18:37:02.686Z,93892.75
2023-05-05T18:39:29.639Z,93894.34
2023-05-05T18:41:56.573Z,93892.38
2023-05-05T18:44:23.477Z,93896.34
2023-05-05T18:46:52.000Z,93898.56
2023-05-05T18:49:18.936Z,93898.34
2023-05-05T18:51:45.787Z,93897.91
2023-05-05T18:54:12.669Z,93900.97
2023-05-05T18:56:39.628Z,93898.88
2023-05-05T18:59:06.708Z,93905.13
2023-05-05T19:01:33.571Z,93904.81
2023-05-05T19:04:01.946Z,93896.44
2023-05-05T19:06:28.986Z,93906.41
2023-05-05T19:08:56.811Z,93895.63
2023-05-05T19:11:23.781Z,93898.59
2023-05-05T19:13:51.318Z,93901.56
2023-05-05T19:16:18.546Z,93899.16
2023-05-05T19:18:45.542Z,93902.28
2023-05-05T19:21:13.757Z,93907.44
2023-05-05T19:23:40.977Z,93913.97
2023-05-05T19:26:07.880Z,93910.88
2023-05-05T19:28:34.749Z,93912.09
2023-05-05T19:31:01.774Z,93910.78
2023-05-05T19:33:28.847Z,93911.25
2023-05-05T19:35:55.689Z,93906.78
2023-05-05T19:38:27.127Z,93912.06
2023-05-05T19:40:54.127Z,93917.19
2023-05-05T19:43:20.992Z,93909.94
2023-05-05T19:45:47.997Z,93905.22
2023-05-05T19:48:15.741Z,93910.34
2023-05-05T19:50:42.712Z,93904.72
2023-05-05T19:53:09.617Z,93900.38
2023-05-05T19:55:38.312Z,93905.28
2023-05-05T19:58:05.182Z,93900.16
2023-05-05T20:00:32.117Z,93900.47
2023-05-05T20:02:59.273Z,93893.22
2023-05-05T20:05:26.343Z,93896.28
2023-05-05T20:07:53.262Z,93895.13
2023-05-05T20:10:20.182Z,93889.44
2023-05-05T20:12:49.147Z,93895.34
2023-05-05T20:15:19.765Z,93889.31
2023-05-05T20:17:46.980Z,93889.41
2023-05-05T20:20:17.103Z,93887.22
2023-05-05T20:22:44.342Z,93890.94
2023-05-05T20:25:11.357Z,93887.56
2023-05-05T20:27:38.608Z,93887.72
2023-05-05T20:30:08.857Z,93879.50
2023-05-05T20:32:36.321Z,93888.53
2023-05-05T20:35:05.539Z,93883.25
2023-05-05T20:37:32.473Z,93879.72
2023-05-05T20:39:59.443Z,93881.06
2023-05-05T20:42:27.733Z,93876.94
2023-05-05T20:44:54.702Z,93875.56
2023-05-05T20:47:23.002Z,93873.56
2023-05-05T20:49:49.916Z,93871.53
2023-05-05T20:52:16.839Z,93872.63
2023-05-05T20:54:43.675Z,93867.38
2023-05-05T20:57:11.524Z,93875.56
2023-05-05T20:59:38.456Z,93877.00
2023-05-05T21:02:05.452Z,93870.94
2023-05-05T21:04:33.824Z,93880.25
2023-05-05T21:07:00.908Z,93873.22
2023-05-05T21:09:27.860Z,93875.78
2023-05-05T21:11:55.749Z,93873.50
2023-05-05T21:14:23.429Z,93870.88
2023-05-05T21:16:50.386Z,93873.94
2023-05-05T21:21:45.623Z,93869.84
2023-05-05T21:24:15.597Z,93877.97
2023-05-05T21:26:43.140Z,93874.59
2023-05-05T21:29:10.326Z,93871.09
2023-05-05T21:31:37.724Z,93875.84
2023-05-05T21:34:04.674Z,93867.53
2023-05-05T21:36:33.730Z,93869.50
2023-05-05T21:39:02.304Z,93868.09
2023-05-05T21:41:29.186Z,93865.03
2023-05-05T21:43:56.128Z,93861.28
2023-05-05T21:46:23.086Z,93861.28
2023-05-05T21:48:50.089Z,93859.22
2023-05-05T21:51:17.457Z,93860.16
2023-05-05T21:53:44.414Z,93863.25
2023-05-05T21:56:12.654Z,93858.69
2023-05-05T21:58:41.066Z,93852.50
2023-05-05T22:01:08.041Z,93848.06
2023-05-05T22:03:35.298Z,93850.94
2023-05-05T22:06:02.311Z,93853.50
2023-05-05T22:08:29.213Z,93851.63
2023-05-05T22:10:56.211Z,93860.09
2023-05-05T22:13:24.491Z,93864.66
2023-05-05T22:15:51.548Z,93860.19
2023-05-05T22:18:18.426Z,93861.03
2023-05-05T22:20:45.311Z,93848.28
2023-05-05T22:23:14.088Z,93855.16
2023-05-05T22:25:41.131Z,93850.16
2023-05-05T22:28:08.091Z,93845.47
2023-05-05T22:30:36.335Z,93846.28
2023-05-05T22:33:03.209Z,93846.28
2023-05-05T22:35:30.157Z,93847.91
2023-05-05T22:37:57.205Z,93851.00
2023-05-05T22:40:24.152Z,93853.78
2023-05-05T22:42:51.072Z,93850.69
2023-05-05T22:45:18.075Z,93845.94
2023-05-05T22:47:46.438Z,93842.88
2023-05-05T22:50:13.524Z,93841.00
2023-05-05T22:52:40.433Z,93840.91
2023-05-05T22:55:08.448Z,93841.75
2023-05-05T22:57:35.751Z,93837.31
2023-05-05T23:00:03.659Z,93841.19
2023-05-05T23:02:30.971Z,93842.25
2023-05-05T23:04:59.278Z,93836.75
2023-05-05T23:07:26.183Z,93842.41
2023-05-05T23:09:53.147Z,93839.63
2023-05-05T23:12:20.105Z,93835.31
2023-05-05T23:14:47.172Z,93829.13
2023-05-05T23:17:14.129Z,93824.84
2023-05-05T23:19:40.971Z,93824.47
2023-05-05T23:22:09.179Z,93823.94
2023-05-05T23:24:36.098Z,93815.31
2023-05-05T23:27:03.146Z,93816.13
2023-05-05T23:29:30.136Z,93818.41
2023-05-05T23:31:57.257Z,93811.16
2023-05-05T23:34:24.371Z,93803.59
2023-05-05T23:36:51.254Z,93799.50
2023-05-05T23:39:19.476Z,93808.13
2023-05-05T23:41:46.370Z,93805.78
2023-05-05T23:44:13.248Z,93811.19
2023-05-05T23:46:40.231Z,93803.03
2023-05-05T23:49:07.234Z,93802.66
2023-05-05T23:51:34.144Z,93797.72
2023-05-05T23:54:01.269Z,93801.34
2023-05-05T23:56:29.495Z,93800.97
2023-05-05T23:58:56.405Z,93801.34
